Time;durP1;ratioP1;P1;durP2;ratioP2;P2;SDS_P1;SDS_P2;PMS_P1;PMS_P2;Temp;Humidity;BMP_temperature;BMP_pressure;BME280_temperature;BME280_humidity;BME280_pressure;Samples;Min_cycle;Max_cycle;Signal;HPM_P1;HPM_P2
2023/08/14 00:02:10;;;;;;;8.73;4.50;;;;;;;-145.69;nan;51981.00;5116531;28;20201;-83
2023/08/14 00:04:37;;;;;;;6.82;4.32;;;;;;;-145.69;nan;51998.81;5117112;28;20663;-83
2023/08/14 00:07:03;;;;;;;6.60;4.47;;;;;;;-145.69;nan;51957.25;5117207;28;20208;-83
2023/08/14 00:09:30;;;;;;;9.20;4.70;;;;;;;-145.69;nan;51992.88;5117402;28;20225;-83
2023/08/14 00:11:57;;;;;;;9.40;4.93;;;;;;;-145.69;nan;51982.97;5116951;28;20560;-82
2023/08/14 00:14:24;;;;;;;7.40;4.57;;;;;;;-145.69;nan;52018.63;5116999;28;20584;-83
2023/08/14 00:16:50;;;;;;;8.00;4.75;;;;;;;-145.69;nan;51994.88;5117594;28;20193;-83
2023/08/14 00:19:17;;;;;;;9.65;4.82;;;;;;;-145.69;nan;51988.91;5117208;28;20201;-84
2023/08/14 00:21:43;;;;;;;7.45;4.10;;;;;;;-145.69;nan;51984.97;5116991;28;20561;-83
2023/08/14 00:24:10;;;;;;;11.30;4.55;;;;;;;-145.69;nan;51996.84;5117499;28;20197;-83
2023/08/14 00:26:36;;;;;;;12.13;4.78;;;;;;;-145.69;nan;51981.00;5117448;28;20197;-84
2023/08/14 00:29:04;;;;;;;9.23;5.07;;;;;;;-145.69;nan;51981.00;5117010;28;20201;-83
2023/08/14 00:31:30;;;;;;;7.32;4.65;;;;;;;-145.69;nan;52000.81;5099147;28;20201;-83
2023/08/14 00:33:57;;;;;;;8.60;4.72;;;;;;;-145.69;nan;52000.81;5117515;28;20209;-83
2023/08/14 00:36:23;;;;;;;7.20;4.32;;;;;;;-145.69;nan;52008.72;5117205;28;20212;-83
2023/08/14 00:38:50;;;;;;;10.18;4.55;;;;;;;-145.69;nan;51994.88;5117050;28;20189;-83
2023/08/14 00:41:17;;;;;;;7.80;4.65;;;;;;;-145.69;nan;51973.06;5118536;28;20225;-83
2023/08/14 00:43:43;;;;;;;7.25;4.70;;;;;;;-145.69;nan;51984.97;5117229;28;20193;-83
2023/08/14 00:46:11;;;;;;;7.85;4.03;;;;;;;-145.69;nan;51981.00;5116514;28;20201;-83
2023/08/14 00:48:38;;;;;;;5.78;4.25;;;;;;;-145.69;nan;52022.59;5117109;28;20201;-83
2023/08/14 00:51:05;;;;;;;8.85;3.78;;;;;;;-145.69;nan;51984.97;5118029;28;20189;-84
2023/08/14 00:53:31;;;;;;;7.47;4.53;;;;;;;-145.69;nan;52020.59;5117748;28;20201;-83
2023/08/14 00:56:00;;;;;;;6.63;4.28;;;;;;;-145.69;nan;51975.06;5115292;28;20209;-82
2023/08/14 00:58:27;;;;;;;9.52;4.82;;;;;;;-145.69;nan;51965.16;5116786;28;20279;-83
2023/08/14 01:00:55;;;;;;;6.85;4.75;;;;;;;-145.69;nan;51996.84;5116289;28;20217;-84
2023/08/14 01:03:25;;;;;;;29.45;5.57;;;;;;;-145.69;nan;51998.81;5114459;28;20193;-83
2023/08/14 01:05:51;;;;;;;17.85;7.05;;;;;;;-145.69;nan;51963.19;5116906;28;20193;-83
2023/08/14 01:08:18;;;;;;;16.48;8.35;;;;;;;-145.69;nan;51981.00;5116361;28;20201;-81
2023/08/14 01:10:57;;;;;;;17.10;8.40;;;;;;;-145.69;nan;51953.28;5117640;27;20220;-83
2023/08/14 01:13:31;;;;;;;13.50;8.25;;;;;;;-145.69;nan;51979.03;5136624;27;20233;-82
2023/08/14 01:16:02;;;;;;;11.10;7.40;;;;;;;-145.69;nan;51982.97;5136203;27;20208;-82
2023/08/14 01:18:32;;;;;;;9.43;6.32;;;;;;;-145.69;nan;51961.19;5121991;27;20201;-83
2023/08/14 01:21:10;;;;;;;10.40;6.10;;;;;;;-145.69;nan;51982.97;5115825;28;20217;-83
2023/08/14 01:23:50;;;;;;;9.50;6.10;;;;;;;-145.69;nan;51988.91;5115817;28;20704;-83
2023/08/14 01:26:18;;;;;;;11.75;7.57;;;;;;;-145.69;nan;51977.03;5115958;28;20594;-83
2023/08/14 01:28:45;;;;;;;10.93;7.63;;;;;;;-145.69;nan;51945.34;5115925;28;20411;-82
2023/08/14 01:31:12;;;;;;;12.43;8.00;;;;;;;-145.69;nan;51986.94;5115381;28;20197;-82
2023/08/14 01:33:38;;;;;;;13.90;8.43;;;;;;;-145.69;nan;51949.31;5115238;28;20694;-83
2023/08/14 01:36:13;;;;;;;16.85;9.10;;;;;;;-145.69;nan;51984.97;5115349;28;20212;-82
2023/08/14 01:38:50;;;;;;;13.65;8.57;;;;;;;-145.69;nan;51939.41;5115506;28;20199;-83
2023/08/14 01:41:23;;;;;;;17.00;8.98;;;;;;;-145.69;nan;51969.13;5115547;28;20225;-82
2023/08/14 01:43:53;;;;;;;14.10;9.05;;;;;;;-145.69;nan;51982.97;5115402;28;20205;-82
2023/08/14 01:46:21;;;;;;;13.88;8.77;;;;;;;-145.69;nan;51969.13;5115336;28;20204;-82
2023/08/14 01:48:50;;;;;;;13.65;9.07;;;;;;;-145.69;nan;51973.06;5114812;28;20193;-83
2023/08/14 01:51:18;;;;;;;18.63;9.30;;;;;;;-145.69;nan;51973.06;5115303;28;20200;-82
2023/08/14 01:53:44;;;;;;;15.30;8.73;;;;;;;-145.69;nan;51953.28;5115422;28;20197;-82
2023/08/14 01:56:11;;;;;;;13.65;9.05;;;;;;;-145.69;nan;51965.16;5114254;28;20194;-82
2023/08/14 01:58:39;;;;;;;16.02;9.13;;;;;;;-145.69;nan;51961.19;5114952;28;20201;-82
2023/08/14 02:01:05;;;;;;;17.70;9.00;;;;;;;-145.69;nan;51941.41;5114398;28;20225;-83
2023/08/14 02:03:32;;;;;;;13.95;8.88;;;;;;;-145.69;nan;51984.97;5114842;28;20194;-83
2023/08/14 02:05:58;;;;;;;12.48;7.88;;;;;;;-145.69;nan;51992.88;5115346;28;20198;-83
2023/08/14 02:08:24;;;;;;;15.10;8.20;;;;;;;-145.69;nan;51957.25;5115364;28;20201;-85
2023/08/14 02:10:51;;;;;;;19.90;8.63;;;;;;;-145.69;nan;51988.91;5115145;28;20208;-83
2023/08/14 02:13:17;;;;;;;17.00;8.50;;;;;;;-145.69;nan;51965.16;5114588;28;20311;-83
2023/08/14 02:15:46;;;;;;;11.85;7.78;;;;;;;-145.69;nan;51961.19;5114907;28;20198;-83
2023/08/14 02:18:13;;;;;;;12.48;8.57;;;;;;;-145.69;nan;51973.06;5114577;28;20198;-82
2023/08/14 02:20:46;;;;;;;11.35;7.93;;;;;;;-145.69;nan;51973.06;5114447;28;20221;-81
2023/08/14 02:23:12;;;;;;;12.75;7.55;;;;;;;-145.69;nan;51988.91;5114473;28;20713;-82
2023/08/14 02:25:40;;;;;;;11.82;7.53;;;;;;;-145.69;nan;51988.91;5113803;28;20201;-82
2023/08/14 02:28:07;;;;;;;9.55;7.25;;;;;;;-145.69;nan;51977.03;5114348;28;20202;-82
2023/08/14 02:30:36;;;;;;;13.13;8.05;;;;;;;-145.69;nan;51957.25;5114659;28;20193;-83
2023/08/14 02:33:04;;;;;;;9.63;7.35;;;;;;;-145.69;nan;51945.34;5114604;28;20201;-83
2023/08/14 02:35:31;;;;;;;11.50;7.20;;;;;;;-145.69;nan;51981.00;5114222;28;20204;-82
2023/08/14 02:37:57;;;;;;;10.77;6.70;;;;;;;-145.69;nan;52004.75;5114574;28;20197;-83
2023/08/14 02:40:24;;;;;;;8.00;5.88;;;;;;;-145.69;nan;51996.84;5114227;28;20200;-83
2023/08/14 02:42:50;;;;;;;8.80;6.93;;;;;;;-145.69;nan;51973.06;5113607;28;20193;-82
2023/08/14 02:45:17;;;;;;;7.95;5.88;;;;;;;-145.69;nan;51984.97;5114577;28;20204;-83
2023/08/14 02:47:43;;;;;;;9.68;5.82;;;;;;;-145.69;nan;51988.91;5114410;28;20201;-83
2023/08/14 02:50:11;;;;;;;14.13;7.15;;;;;;;-145.69;nan;51996.84;5114306;28;20220;-83
2023/08/14 02:52:38;;;;;;;10.93;6.93;;;;;;;-145.69;nan;51996.84;5114186;28;20665;-83
2023/08/14 02:55:05;;;;;;;10.82;6.88;;;;;;;-145.69;nan;51963.19;5113702;28;20582;-83
2023/08/14 02:57:32;;;;;;;10.50;6.57;;;;;;;-145.69;nan;52000.81;5114059;28;20194;-83
2023/08/14 02:59:58;;;;;;;10.10;6.65;;;;;;;-145.69;nan;52004.75;5096151;28;20190;-82
2023/08/14 03:02:24;;;;;;;10.13;6.68;;;;;;;-145.69;nan;51979.03;5113450;28;20217;-82
2023/08/14 03:04:51;;;;;;;8.52;6.18;;;;;;;-145.69;nan;51977.03;5114281;28;20205;-84
2023/08/14 03:07:19;;;;;;;11.30;6.53;;;;;;;-145.69;nan;51977.03;5114197;28;20223;-84
2023/08/14 03:09:45;;;;;;;11.20;6.78;;;;;;;-145.69;nan;51988.91;5113766;28;20219;-83
2023/08/14 03:12:12;;;;;;;9.68;6.72;;;;;;;-145.69;nan;52004.75;5111139;28;20782;-82
2023/08/14 03:14:38;;;;;;;8.77;5.53;;;;;;;-145.69;nan;51979.03;5113450;28;20228;-83
2023/08/14 03:17:05;;;;;;;8.15;5.68;;;;;;;-145.69;nan;51949.31;5113802;28;20197;-84
2023/08/14 03:19:31;;;;;;;7.82;5.03;;;;;;;-145.69;nan;51984.97;5113762;28;20201;-83
2023/08/14 03:21:58;;;;;;;6.25;4.60;;;;;;;-145.69;nan;51996.84;5113201;27;20226;-83
2023/08/14 03:24:25;;;;;;;6.57;4.82;;;;;;;-145.69;nan;51994.88;5113621;28;20198;-83
2023/08/14 03:26:52;;;;;;;12.57;5.55;;;;;;;-145.69;nan;52018.63;5113408;28;20196;-83
2023/08/14 03:29:18;;;;;;;6.55;4.80;;;;;;;-145.69;nan;52008.72;5113088;28;20193;-83
2023/08/14 03:31:45;;;;;;;8.95;5.47;;;;;;;-145.69;nan;52030.50;5112307;28;20202;-82
2023/08/14 03:34:11;;;;;;;9.65;5.70;;;;;;;-145.69;nan;52000.81;5112850;28;20198;-84
2023/08/14 03:36:38;;;;;;;10.13;6.65;;;;;;;-145.69;nan;51967.13;5113587;28;20209;-82
2023/08/14 03:39:04;;;;;;;6.90;4.93;;;;;;;-145.69;nan;51998.81;5113355;28;20205;-83
2023/08/14 03:41:32;;;;;;;10.55;3.88;;;;;;;-145.69;nan;51992.88;5113348;28;20208;-83
2023/08/14 03:43:58;;;;;;;4.57;3.38;;;;;;;-145.69;nan;51988.91;5113354;28;20201;-83
2023/08/14 03:46:25;;;;;;;5.82;3.50;;;;;;;-145.69;nan;51990.91;5113522;28;20197;-83
2023/08/14 03:48:52;;;;;;;5.22;3.88;;;;;;;-145.69;nan;51996.84;5113259;28;20545;-83
2023/08/14 03:51:18;;;;;;;3.92;3.10;;;;;;;-145.69;nan;52004.75;5113494;28;20225;-83
2023/08/14 03:53:44;;;;;;;4.43;3.70;;;;;;;-145.69;nan;51996.84;5113640;28;20679;-82
2023/08/14 03:56:11;;;;;;;5.53;3.80;;;;;;;-145.69;nan;51986.94;5112804;28;20209;-82
2023/08/14 03:58:39;;;;;;;8.93;4.30;;;;;;;-145.69;nan;51969.13;5113191;28;20190;-83
2023/08/14 04:01:05;;;;;;;11.75;6.55;;;;;;;-145.69;nan;51965.16;5113172;28;20228;-83
2023/08/14 04:03:32;;;;;;;8.10;5.95;;;;;;;-145.69;nan;51988.91;5113216;28;20201;-82
2023/08/14 04:05:58;;;;;;;11.00;6.80;;;;;;;-145.69;nan;52020.59;5113043;28;20201;-83
2023/08/14 04:08:25;;;;;;;8.07;6.10;;;;;;;-145.69;nan;51979.03;5113062;28;20200;-83
2023/08/14 04:10:56;;;;;;;7.03;5.68;;;;;;;-145.69;nan;51945.34;5112647;28;20208;-83
2023/08/14 04:13:23;;;;;;;10.25;5.68;;;;;;;-145.69;nan;51986.94;5113046;28;20699;-83
2023/08/14 04:15:51;;;;;;;8.85;5.75;;;;;;;-145.69;nan;51981.00;5113295;28;20202;-83
2023/08/14 04:18:17;;;;;;;9.05;5.78;;;;;;;-145.69;nan;51959.22;5113311;28;20753;-83
2023/08/14 04:20:44;;;;;;;8.20;5.88;;;;;;;-145.69;nan;51977.03;5112727;28;20204;-82
2023/08/14 04:23:11;;;;;;;8.35;4.97;;;;;;;-145.69;nan;51984.97;5112948;28;20711;-83
2023/08/14 04:25:38;;;;;;;8.70;5.72;;;;;;;-145.69;nan;51998.81;5113233;28;20197;-82
2023/08/14 04:28:05;;;;;;;10.20;5.38;;;;;;;-145.69;nan;51986.94;5113473;28;20205;-82
2023/08/14 04:30:32;;;;;;;7.22;4.90;;;;;;;-145.69;nan;51992.88;5113151;28;20198;-83
2023/08/14 04:32:59;;;;;;;6.40;4.80;;;;;;;-145.69;nan;52006.75;5112968;28;20193;-84
2023/08/14 04:35:26;;;;;;;8.68;5.22;;;;;;;-145.69;nan;51994.88;5113247;28;20752;-84
2023/08/14 04:37:52;;;;;;;8.05;5.88;;;;;;;-145.69;nan;52010.69;5113077;28;20204;-82
2023/08/14 04:40:19;;;;;;;12.10;6.05;;;;;;;-145.69;nan;51996.84;5113125;28;20212;-83
2023/08/14 04:42:45;;;;;;;7.85;4.72;;;;;;;-145.69;nan;51967.13;5115795;28;20236;-82
2023/08/14 04:45:12;;;;;;;6.95;5.38;;;;;;;-145.69;nan;52000.81;5116456;28;20190;-83
2023/08/14 04:47:38;;;;;;;8.73;5.32;;;;;;;-145.69;nan;52004.75;5116678;28;20197;-83
2023/08/14 04:50:08;;;;;;;8.32;5.28;;;;;;;-145.69;nan;51982.97;5116648;28;20201;-83
2023/08/14 04:52:34;;;;;;;8.30;4.93;;;;;;;-145.69;nan;51996.84;5116707;28;20197;-83
2023/08/14 04:55:01;;;;;;;9.95;5.43;;;;;;;-145.69;nan;52006.75;5116316;28;20209;-83
2023/08/14 04:57:27;;;;;;;9.10;5.18;;;;;;;-145.69;nan;52002.78;5116035;28;20197;-83
2023/08/14 04:59:54;;;;;;;12.25;5.47;;;;;;;-145.69;nan;52002.78;5116778;28;20197;-83
2023/08/14 05:02:20;;;;;;;6.97;4.93;;;;;;;-145.69;nan;52000.81;5116076;28;20236;-84
2023/08/14 05:04:47;;;;;;;9.73;5.63;;;;;;;-145.69;nan;51977.03;5116170;28;20201;-84
2023/08/14 05:07:15;;;;;;;8.25;5.60;;;;;;;-145.69;nan;51996.84;5117275;28;20201;-84
2023/08/14 05:09:41;;;;;;;9.45;4.70;;;;;;;-145.69;nan;51981.00;5115752;28;20201;-83
2023/08/14 05:12:09;;;;;;;6.43;5.07;;;;;;;-145.69;nan;51988.91;5116281;28;20206;-84
2023/08/14 05:14:35;;;;;;;9.98;4.97;;;;;;;-145.69;nan;51996.84;5117884;28;20259;-84
2023/08/14 05:17:02;;;;;;;7.55;5.32;;;;;;;-145.69;nan;51973.06;5113964;28;20194;-84
2023/08/14 05:19:28;;;;;;;9.07;4.72;;;;;;;-145.69;nan;51984.97;5095827;28;20202;-84
2023/08/14 05:21:55;;;;;;;5.93;4.50;;;;;;;-145.69;nan;52002.78;5080770;28;20226;-84
2023/08/14 05:24:23;;;;;;;8.10;4.93;;;;;;;-145.69;nan;52000.81;5096205;28;20202;-83
2023/08/14 05:26:49;;;;;;;11.77;4.80;;;;;;;-145.69;nan;52020.59;5112065;28;20201;-83
2023/08/14 05:29:16;;;;;;;7.32;5.22;;;;;;;-145.69;nan;51986.94;5108689;28;20193;-84
2023/08/14 05:31:42;;;;;;;8.00;5.15;;;;;;;-145.69;nan;52038.44;5116651;28;20209;-83
2023/08/14 05:34:08;;;;;;;9.00;5.28;;;;;;;-145.69;nan;52012.69;5115754;28;20189;-84
2023/08/14 05:36:35;;;;;;;11.32;5.47;;;;;;;-145.69;nan;51998.81;5115786;28;20200;-84
2023/08/14 05:39:01;;;;;;;8.35;5.20;;;;;;;-145.69;nan;52006.75;5115594;28;20201;-84
2023/08/14 05:41:29;;;;;;;7.95;5.63;;;;;;;-145.69;nan;51984.97;5115916;28;20193;-85
2023/08/14 05:43:56;;;;;;;9.77;5.50;;;;;;;-145.69;nan;51992.88;5116909;28;20204;-85
2023/08/14 05:46:24;;;;;;;8.95;5.72;;;;;;;-145.69;nan;52002.78;5115748;28;20204;-83
2023/08/14 05:48:51;;;;;;;7.95;5.65;;;;;;;-145.69;nan;52004.75;5116260;28;20555;-83
2023/08/14 05:51:17;;;;;;;10.45;6.28;;;;;;;-145.69;nan;52010.69;5115440;28;20220;-83
2023/08/14 05:53:43;;;;;;;8.52;6.10;;;;;;;-145.69;nan;51996.84;5115667;28;20204;-85
2023/08/14 05:56:10;;;;;;;8.18;5.78;;;;;;;-145.69;nan;51955.25;5115996;28;20205;-84
2023/08/14 05:58:38;;;;;;;9.82;6.78;;;;;;;-145.69;nan;51957.25;5114926;28;20190;-84
2023/08/14 06:01:04;;;;;;;17.00;7.20;;;;;;;-145.69;nan;52002.78;5115989;28;20227;-84
2023/08/14 06:03:31;;;;;;;16.10;7.53;;;;;;;-145.69;nan;51986.94;5114986;28;20224;-84
2023/08/14 06:05:57;;;;;;;10.77;7.25;;;;;;;-145.69;nan;51992.88;5115787;28;20239;-84
2023/08/14 06:08:24;;;;;;;14.02;7.63;;;;;;;-145.69;nan;51988.91;5115227;28;20201;-84
2023/08/14 06:10:50;;;;;;;13.27;7.97;;;;;;;-145.69;nan;51977.03;5115094;28;20202;-84
2023/08/14 06:13:16;;;;;;;15.57;7.95;;;;;;;-145.69;nan;52008.72;5115020;28;20232;-84
2023/08/14 06:15:44;;;;;;;15.07;7.63;;;;;;;-145.69;nan;51981.00;5115249;28;20714;-83
2023/08/14 06:18:11;;;;;;;11.77;7.55;;;;;;;-145.69;nan;51981.00;5115218;28;20201;-83
2023/08/14 06:20:37;;;;;;;11.38;7.65;;;;;;;-145.69;nan;51967.13;5115048;28;20208;-85
2023/08/14 06:23:04;;;;;;;16.67;7.78;;;;;;;-145.69;nan;51977.03;5114295;28;20225;-80
2023/08/14 06:25:32;;;;;;;18.63;8.50;;;;;;;-145.69;nan;51977.03;5114224;28;20217;-83
2023/08/14 06:27:59;;;;;;;15.93;7.85;;;;;;;-145.69;nan;51973.06;5114863;28;20197;-82
2023/08/14 06:30:25;;;;;;;10.05;7.25;;;;;;;-145.69;nan;51943.38;5096808;28;20202;-84
2023/08/14 06:32:53;;;;;;;11.88;7.70;;;;;;;-145.69;nan;51955.25;5114882;28;20229;-82
2023/08/14 06:35:20;;;;;;;10.27;7.20;;;;;;;-145.69;nan;51975.06;5114239;28;20228;-83
2023/08/14 06:37:46;;;;;;;13.02;7.85;;;;;;;-145.69;nan;51953.28;5114599;28;20556;-83
2023/08/14 06:40:12;;;;;;;10.45;6.88;;;;;;;-145.69;nan;51955.25;5114744;28;20648;-85
2023/08/14 06:42:39;;;;;;;11.20;6.88;;;;;;;-145.69;nan;51969.13;5115039;28;20224;-84
2023/08/14 06:45:06;;;;;;;9.68;7.13;;;;;;;-145.69;nan;51921.59;5115115;28;20279;-84
2023/08/14 06:47:33;;;;;;;10.20;7.07;;;;;;;-145.69;nan;51967.13;5114317;28;20652;-85
2023/08/14 06:50:01;;;;;;;12.80;7.53;;;;;;;-145.69;nan;51961.19;5114740;28;20280;-84
2023/08/14 06:52:27;;;;;;;10.35;6.00;;;;;;;-145.69;nan;51925.56;5114600;28;20208;-84
2023/08/14 06:54:54;;;;;;;9.05;6.20;;;;;;;-145.69;nan;51939.41;5114362;28;20208;-83
2023/08/14 06:57:20;;;;;;;7.32;5.43;;;;;;;-145.69;nan;51945.34;5113858;28;20201;-83
2023/08/14 06:59:46;;;;;;;8.63;6.15;;;;;;;-145.69;nan;51937.44;5114007;28;20301;-83
2023/08/14 07:02:13;;;;;;;8.77;5.75;;;;;;;-145.69;nan;51901.78;5114128;28;20264;-82
2023/08/14 07:04:40;;;;;;;6.88;4.88;;;;;;;-145.69;nan;51929.50;5114112;28;20529;-84
2023/08/14 07:07:07;;;;;;;6.53;4.97;;;;;;;-145.69;nan;51937.44;5113732;28;20556;-84
2023/08/14 07:09:34;;;;;;;9.30;5.97;;;;;;;-145.69;nan;51941.41;5114185;28;20563;-83
2023/08/14 07:12:00;;;;;;;7.80;4.93;;;;;;;-145.69;nan;51947.34;5113789;28;20648;-83
2023/08/14 07:14:27;;;;;;;8.95;4.93;;;;;;;-145.69;nan;51941.41;5113515;28;20221;-84
2023/08/14 07:16:53;;;;;;;8.05;4.55;;;;;;;-145.69;nan;51905.75;5113776;28;20197;-83
2023/08/14 07:19:19;;;;;;;8.05;4.40;;;;;;;-145.69;nan;51963.19;5114053;28;20284;-84
2023/08/14 07:21:46;;;;;;;6.93;5.22;;;;;;;-145.69;nan;51897.84;5116124;27;20204;-83
2023/08/14 07:24:14;;;;;;;5.97;4.65;;;;;;;-145.69;nan;51893.88;5112123;28;20208;-82
2023/08/14 07:26:41;;;;;;;5.95;4.38;;;;;;;-145.69;nan;51889.91;5113048;28;20197;-83
2023/08/14 07:29:08;;;;;;;10.13;4.28;;;;;;;-145.69;nan;51913.69;5113784;28;20193;-82
2023/08/14 07:31:34;;;;;;;7.47;4.88;;;;;;;-145.69;nan;51937.44;5113600;28;20254;-83
2023/08/14 07:34:01;;;;;;;5.97;4.13;;;;;;;-145.69;nan;51901.78;5113429;28;20217;-83
2023/08/14 07:36:27;;;;;;;5.75;4.25;;;;;;;-145.69;nan;51915.66;5099887;28;20280;-83
2023/08/14 07:38:54;;;;;;;5.40;4.38;;;;;;;-145.69;nan;51895.84;5113837;28;20198;-83
2023/08/14 07:41:22;;;;;;;6.28;4.65;;;;;;;-145.69;nan;51915.66;5113490;28;20382;-83
2023/08/14 07:43:48;;;;;;;8.75;3.97;;;;;;;-145.69;nan;51887.94;5113510;28;20229;-83
2023/08/14 07:46:15;;;;;;;5.32;3.95;;;;;;;-145.69;nan;51885.94;5113313;28;20201;-84
2023/08/14 07:48:41;;;;;;;5.53;3.92;;;;;;;-145.69;nan;51897.84;5113058;28;20193;-81
2023/08/14 07:51:07;;;;;;;6.85;4.30;;;;;;;-145.69;nan;51899.81;5113269;28;20193;-81
2023/08/14 07:53:34;;;;;;;6.53;3.55;;;;;;;-145.69;nan;51878.03;5113451;28;20559;-80
2023/08/14 07:56:00;;;;;;;6.75;4.68;;;;;;;-145.69;nan;51891.88;5112852;28;20197;-81
2023/08/14 07:58:28;;;;;;;5.43;3.50;;;;;;;-145.69;nan;51872.09;5112902;28;20250;-81
2023/08/14 08:00:55;;;;;;;5.60;3.90;;;;;;;-145.69;nan;51893.88;5112984;28;20189;-81
2023/08/14 08:03:22;;;;;;;6.72;3.75;;;;;;;-145.69;nan;51874.06;5112933;28;20253;-81
2023/08/14 08:05:48;;;;;;;5.75;3.83;;;;;;;-145.69;nan;51876.06;5113176;28;20201;-82
2023/08/14 08:08:15;;;;;;;6.78;3.75;;;;;;;-145.69;nan;51897.84;5112996;28;20197;-82
2023/08/14 08:10:41;;;;;;;7.60;3.97;;;;;;;-145.69;nan;51866.16;5113184;28;20201;-82
2023/08/14 08:13:08;;;;;;;7.65;3.65;;;;;;;-145.69;nan;51868.13;5112400;28;20204;-82
2023/08/14 08:15:35;;;;;;;5.07;3.10;;;;;;;-145.69;nan;51862.19;5112924;28;20194;-83
2023/08/14 08:18:02;;;;;;;5.60;3.30;;;;;;;-145.69;nan;51889.91;5115428;28;20201;-82
2023/08/14 08:20:28;;;;;;;6.38;3.65;;;;;;;-145.69;nan;51850.31;5117125;28;20241;-83
2023/08/14 08:22:55;;;;;;;6.03;3.65;;;;;;;-145.69;nan;51824.56;5117013;28;20232;-82
2023/08/14 08:25:21;;;;;;;5.20;3.60;;;;;;;-145.69;nan;51826.56;5117359;28;20189;-82
2023/08/14 08:27:48;;;;;;;5.20;3.42;;;;;;;-145.69;nan;51826.56;5117081;28;20206;-80
2023/08/14 08:30:14;;;;;;;6.38;2.85;;;;;;;-145.69;nan;51822.59;5117007;28;20213;-81
2023/08/14 08:32:42;;;;;;;5.32;2.90;;;;;;;-145.69;nan;51844.38;5116951;28;20204;-81
2023/08/14 08:35:09;;;;;;;6.25;3.28;;;;;;;-145.69;nan;51850.31;5116678;28;20189;-83
2023/08/14 08:37:36;;;;;;;5.95;2.78;;;;;;;-145.69;nan;51846.34;5116777;28;20655;-83
2023/08/14 08:40:05;;;;;;;5.70;3.00;;;;;;;-145.69;nan;51832.50;5116820;28;20699;-86
2023/08/14 08:42:31;;;;;;;6.70;2.72;;;;;;;-145.69;nan;51850.31;5116643;28;20221;-82
2023/08/14 08:45:02;;;;;;;7.18;2.55;;;;;;;-145.69;nan;51834.47;5116436;28;20216;-81
2023/08/14 08:47:30;;;;;;;5.60;2.95;;;;;;;-145.69;nan;51820.59;5116451;28;20272;-82
2023/08/14 08:49:59;;;;;;;5.88;2.92;;;;;;;-145.69;nan;51816.66;5116655;28;20221;-79
2023/08/14 08:52:26;;;;;;;4.47;2.65;;;;;;;-145.69;nan;51800.81;5116479;28;20229;-77
2023/08/14 08:54:53;;;;;;;3.53;2.20;;;;;;;-145.69;nan;51824.56;5116612;28;20201;-77
2023/08/14 08:57:21;;;;;;;7.97;2.30;;;;;;;-145.69;nan;51834.47;5116246;28;20197;-78
2023/08/14 08:59:48;;;;;;;3.90;2.80;;;;;;;-145.69;nan;51794.88;5116018;28;20219;-77
2023/08/14 09:02:15;;;;;;;3.50;2.13;;;;;;;-145.69;nan;51818.63;5116414;28;20197;-77
2023/08/14 09:04:41;;;;;;;5.18;2.78;;;;;;;-145.69;nan;51790.91;5116220;28;20201;-77
2023/08/14 09:07:09;;;;;;;4.45;2.70;;;;;;;-145.69;nan;51794.88;5116347;28;20193;-78
2023/08/14 09:09:36;;;;;;;3.95;2.80;;;;;;;-145.69;nan;51810.72;5116278;28;20193;-83
2023/08/14 09:12:05;;;;;;;4.70;2.42;;;;;;;-145.69;nan;51800.81;5116051;28;20280;-84
2023/08/14 09:14:36;;;;;;;6.18;2.65;;;;;;;-145.69;nan;51806.75;5115788;28;20311;-83
2023/08/14 09:17:03;;;;;;;7.25;2.50;;;;;;;-145.69;nan;51808.72;5115624;27;20773;-81
2023/08/14 09:19:29;;;;;;;4.20;2.58;;;;;;;-145.69;nan;51798.81;5117517;27;20549;-82
2023/08/14 09:21:56;;;;;;;3.97;2.80;;;;;;;-145.69;nan;51814.66;5107023;28;20604;-82
2023/08/14 09:24:24;;;;;;;3.30;2.05;;;;;;;-145.69;nan;51775.06;5116420;28;20231;-81
2023/08/14 09:26:51;;;;;;;3.33;2.25;;;;;;;-145.69;nan;51769.13;5115705;28;20197;-83
2023/08/14 09:29:18;;;;;;;4.68;2.40;;;;;;;-145.69;nan;51769.13;5114936;28;20288;-81
2023/08/14 09:31:45;;;;;;;6.65;2.42;;;;;;;-145.69;nan;51786.94;5116116;28;20197;-83
2023/08/14 09:34:17;;;;;;;8.82;2.53;;;;;;;-145.69;nan;51775.06;5112939;28;20743;-78
2023/08/14 09:36:43;;;;;;;6.07;2.70;;;;;;;-145.69;nan;51773.09;5115628;28;20198;-78
2023/08/14 09:39:14;;;;;;;4.00;2.60;;;;;;;-145.69;nan;51769.13;5115826;28;20204;-81
2023/08/14 09:41:47;;;;;;;5.65;2.45;;;;;;;-145.69;nan;51775.06;5115200;28;20193;-81
2023/08/14 09:44:13;;;;;;;6.35;2.65;;;;;;;-145.69;nan;51753.28;5114394;28;20221;-82
2023/08/14 09:46:41;;;;;;;3.95;2.63;;;;;;;-145.69;nan;51767.16;5114302;28;20208;-82
2023/08/14 09:49:08;;;;;;;4.20;2.38;;;;;;;-145.69;nan;51771.09;5114848;28;20193;-82
2023/08/14 09:51:37;;;;;;;5.95;2.50;;;;;;;-145.69;nan;51747.34;5115772;28;20209;-82
2023/08/14 09:54:08;;;;;;;5.00;2.90;;;;;;;-145.69;nan;51747.34;5115010;28;20547;-81
2023/08/14 09:56:36;;;;;;;3.10;2.42;;;;;;;-145.69;nan;51743.38;5115376;28;20201;-81
2023/08/14 09:59:04;;;;;;;5.03;2.60;;;;;;;-145.69;nan;51751.31;5113230;28;20200;-81
2023/08/14 10:01:31;;;;;;;4.55;2.67;;;;;;;-145.69;nan;51755.25;5113557;28;20197;-82
2023/08/14 10:03:59;;;;;;;5.32;3.05;;;;;;;-145.69;nan;51731.50;5112025;28;20221;-83
2023/08/14 10:06:26;;;;;;;3.72;2.45;;;;;;;-145.69;nan;51747.34;5112942;28;20642;-83
2023/08/14 10:08:57;;;;;;;4.35;2.60;;;;;;;-145.69;nan;51745.38;5113299;28;20209;-82
2023/08/14 10:11:27;;;;;;;3.67;2.50;;;;;;;-145.69;nan;51699.81;5113112;28;20189;-83
2023/08/14 10:13:59;;;;;;;4.43;2.45;;;;;;;-145.69;nan;51717.66;5096263;28;20221;-80
2023/08/14 10:16:40;;;;;;;3.20;2.20;;;;;;;-145.69;nan;51664.19;5114806;28;20717;-86
2023/08/14 10:19:11;;;;;;;3.03;2.38;;;;;;;-145.69;nan;51695.88;5112131;28;20204;-85
2023/08/14 10:21:40;;;;;;;4.32;2.40;;;;;;;-145.69;nan;51683.97;5116560;28;20202;-84
2023/08/14 10:24:08;;;;;;;3.80;2.50;;;;;;;-145.69;nan;51668.16;5114935;28;20225;-83
2023/08/14 10:26:35;;;;;;;5.47;2.40;;;;;;;-145.69;nan;51664.19;5114783;28;20268;-85
2023/08/14 10:29:03;;;;;;;5.85;2.40;;;;;;;-145.69;nan;51711.72;5115490;28;20569;-86
2023/08/14 10:31:34;;;;;;;3.67;2.17;;;;;;;-145.69;nan;51620.63;5115101;28;20243;-85
2023/08/14 10:34:05;;;;;;;3.60;2.20;;;;;;;-145.69;nan;51638.44;5114870;28;20208;-85
2023/08/14 10:36:33;;;;;;;5.07;2.13;;;;;;;-145.69;nan;51652.31;5114764;28;20201;-85
2023/08/14 10:39:07;;;;;;;4.25;2.35;;;;;;;-145.69;nan;51600.81;5114389;28;20201;-84
2023/08/14 10:41:37;;;;;;;4.80;2.45;;;;;;;-145.69;nan;51616.66;5114586;28;20197;-83
2023/08/14 10:44:07;;;;;;;4.07;2.10;;;;;;;-145.69;nan;51612.72;5114251;28;20213;-84
2023/08/14 10:46:38;;;;;;;4.40;2.50;;;;;;;-145.69;nan;51600.81;5114593;28;20198;-85
2023/08/14 10:49:07;;;;;;;3.28;2.00;;;;;;;-145.69;nan;51581.03;5114703;28;20194;-83
2023/08/14 10:51:34;;;;;;;6.45;2.50;;;;;;;-145.69;nan;51567.16;5113838;28;20215;-84
2023/08/14 10:54:10;;;;;;;4.60;2.40;;;;;;;-145.69;nan;51596.88;5114024;28;20203;-85
2023/08/14 10:56:45;;;;;;;5.80;2.25;;;;;;;-145.69;nan;51598.84;5114355;28;20224;-85
2023/08/14 10:59:26;;;;;;;2.67;2.10;;;;;;;-145.69;nan;51579.03;5114226;28;20196;-86
2023/08/14 11:02:05;;;;;;;4.30;2.47;;;;;;;-145.69;nan;51577.06;5114148;28;20189;-86
2023/08/14 11:04:35;;;;;;;4.82;2.33;;;;;;;-145.69;nan;51604.78;5113559;28;20659;-86
2023/08/14 11:07:13;;;;;;;3.20;2.25;;;;;;;-145.69;nan;51590.94;5114371;28;20198;-85
2023/08/14 11:09:43;;;;;;;3.83;2.42;;;;;;;-145.69;nan;51608.75;5114271;28;20201;-85
2023/08/14 11:12:11;;;;;;;5.30;2.55;;;;;;;-145.69;nan;51624.59;5114425;28;20205;-85
2023/08/14 11:14:42;;;;;;;5.63;2.35;;;;;;;-145.69;nan;51618.66;5113412;28;20221;-84
2023/08/14 11:17:12;;;;;;;4.82;2.63;;;;;;;-145.69;nan;51608.75;5122782;27;20193;-84
2023/08/14 11:19:39;;;;;;;6.13;2.60;;;;;;;-145.69;nan;51614.69;5134096;27;20224;-85
2023/08/14 11:22:07;;;;;;;3.50;2.30;;;;;;;-145.69;nan;51616.66;5116240;27;20204;-85
2023/08/14 11:24:36;;;;;;;4.35;2.80;;;;;;;-145.69;nan;51596.88;5130005;27;20221;-84
2023/08/14 11:27:04;;;;;;;4.68;2.30;;;;;;;-145.69;nan;51666.16;5113415;28;20189;-84
2023/08/14 11:29:33;;;;;;;3.17;2.50;;;;;;;-145.69;nan;51644.38;5113183;28;20206;-85
2023/08/14 11:32:02;;;;;;;4.13;2.30;;;;;;;-145.69;nan;51630.53;5113912;28;20232;-80
2023/08/14 11:34:32;;;;;;;5.22;2.60;;;;;;;-145.69;nan;51644.38;5104723;28;20641;-80